Time;durP1;ratioP1;P1;durP2;ratioP2;P2;SDS_P1;SDS_P2;PMS_P1;PMS_P2;Temp;Humidity;BMP_temperature;BMP_pressure;BME280_temperature;BME280_humidity;BME280_pressure;Samples;Min_cycle;Max_cycle;Signal;HPM_P1;HPM_P2
2021/07/08 00:00:18;;;;;;;;;;;;;;;;;;5047831;28;1910;-50
2021/07/08 00:02:43;;;;;;;;;;;;;;;;;;5048745;28;1474;-50
2021/07/08 00:05:09;;;;;;;;;;;;;;;;;;5047568;28;1724;-50
2021/07/08 00:07:34;;;;;;;;;;;;;;;;;;5049338;28;1781;-51
2021/07/08 00:09:59;;;;;;;;;;;;;;;;;;5049832;28;1446;-51
2021/07/08 00:12:25;;;;;;;;;;;;;;;;;;5051941;28;1117;-50
2021/07/08 00:14:50;;;;;;;;;;;;;;;;;;5044984;28;1791;-50
2021/07/08 00:17:15;;;;;;;;;;;;;;;;;;5052112;28;1323;-50
2021/07/08 00:19:40;;;;;;;;;;;;;;;;;;5050840;28;1906;-51
2021/07/08 00:22:05;;;;;;;;;;;;;;;;;;5051835;28;1183;-51
2021/07/08 00:24:30;;;;;;;;;;;;;;;;;;5048437;28;1665;-50
2021/07/08 00:26:56;;;;;;;;;;;;;;;;;;5048870;28;1380;-51
2021/07/08 00:29:21;;;;;;;;;;;;;;;;;;5048363;28;1686;-51
2021/07/08 00:31:46;;;;;;;;;;;;;;;;;;5049619;28;1177;-51
2021/07/08 00:34:11;;;;;;;;;;;;;;;;;;5050939;28;1164;-49
2021/07/08 00:36:36;;;;;;;;;;;;;;;;;;5044765;28;1692;-51
2021/07/08 00:39:02;;;;;;;;;;;;;;;;;;5051454;28;1958;-51
2021/07/08 00:41:27;;;;;;;;;;;;;;;;;;5043849;28;2083;-50
2021/07/08 00:43:52;;;;;;;;;;;;;;;;;;5051019;28;1116;-50
2021/07/08 00:46:18;;;;;;;;;;;;;;;;;;5047103;28;1662;-51
2021/07/08 00:48:43;;;;;;;;;;;;;;;;;;5047564;28;1428;-50
2021/07/08 00:51:09;;;;;;;;;;;;;;;;;;5045627;28;1354;-49
2021/07/08 00:53:34;;;;;;;;;;;;;;;;;;4876884;28;1626;-49
2021/07/08 00:56:00;;;;;;;;;;;;;;;;;;5042593;28;2109;-50
2021/07/08 00:58:25;;;;;;;;;;;;;;;;;;5046553;28;1906;-51
2021/07/08 01:00:51;;;;;;;;;;;;;;;;;;5043597;28;1521;-49
2021/07/08 01:03:16;;;;;;;;;;;;;;;;;;5044476;28;1385;-51
2021/07/08 01:05:42;;;;;;;;;;;;;;;;;;5041392;28;1597;-51
2021/07/08 01:08:08;;;;;;;;;;;;;;;;;;5047177;28;1141;-51
2021/07/08 01:10:33;;;;;;;;;;;;;;;;;;5048956;28;1215;-49
2021/07/08 01:12:59;;;;;;;;;;;;;;;;;;5030656;28;1625;-51
2021/07/08 01:15:24;;;;;;;;;;;;;;;;;;5046955;28;1634;-51
2021/07/08 01:17:50;;;;;;;;;;;;;;;;;;5049484;28;1249;-51
2021/07/08 01:20:17;;;;;;;;;;;;;;;;;;5050206;28;1910;-50
2021/07/08 01:22:42;;;;;;;;;;;;;;;;;;5049543;28;1184;-51
2021/07/08 01:25:08;;;;;;;;;;;;;;;;;;5029721;28;1548;-51
2021/07/08 01:27:34;;;;;;;;;;;;;;;;;;5047779;28;1605;-50
2021/07/08 01:29:59;;;;;;;;;;;;;;;;;;5032361;28;1654;-51
2021/07/08 01:32:25;;;;;;;;;;;;;;;;;;5031722;28;1188;-50
2021/07/08 01:34:50;;;;;;;;;;;;;;;;;;5050643;28;1180;-51
2021/07/08 01:37:16;;;;;;;;;;;;;;;;;;5048784;28;1531;-51
2021/07/08 01:39:43;;;;;;;;;;;;;;;;;;5047605;28;1967;-51
2021/07/08 01:42:08;;;;;;;;;;;;;;;;;;5049661;28;1247;-49
2021/07/08 01:44:33;;;;;;;;;;;;;;;;;;5027888;28;1589;-50
2021/07/08 01:46:58;;;;;;;;;;;;;;;;;;5031677;28;1320;-51
2021/07/08 01:49:24;;;;;;;;;;;;;;;;;;5050311;28;1192;-51
2021/07/08 01:51:50;;;;;;;;;;;;;;;;;;5050408;28;1173;-49
2021/07/08 01:54:15;;;;;;;;;;;;;;;;;;5045935;28;1564;-51
2021/07/08 01:56:40;;;;;;;;;;;;;;;;;;5049146;28;1486;-51
2021/07/08 01:59:06;;;;;;;;;;;;;;;;;;5049383;28;1926;-51
2021/07/08 02:01:31;;;;;;;;;;;;;;;;;;5046772;28;1707;-50
2021/07/08 02:03:56;;;;;;;;;;;;;;;;;;5047721;28;1341;-51
2021/07/08 02:06:21;;;;;;;;;;;;;;;;;;5043393;28;1588;-51
2021/07/08 02:08:46;;;;;;;;;;;;;;;;;;5049247;28;1204;-51
2021/07/08 02:11:12;;;;;;;;;;;;;;;;;;5048708;28;1144;-51
2021/07/08 02:13:37;;;;;;;;;;;;;;;;;;5049241;28;1197;-50
2021/07/08 02:16:03;;;;;;;;;;;;;;;;;;5043565;28;1612;-51
2021/07/08 02:18:28;;;;;;;;;;;;;;;;;;5048524;28;1910;-50
2021/07/08 02:20:53;;;;;;;;;;;;;;;;;;5047568;28;1298;-51
2021/07/08 02:23:18;;;;;;;;;;;;;;;;;;5047686;28;1663;-51
2021/07/08 02:25:43;;;;;;;;;;;;;;;;;;5049035;28;1306;-50
2021/07/08 02:28:09;;;;;;;;;;;;;;;;;;5051746;28;1223;-50
2021/07/08 02:30:34;;;;;;;;;;;;;;;;;;5047413;28;1601;-50
2021/07/08 02:32:59;;;;;;;;;;;;;;;;;;5054029;28;1228;-51
2021/07/08 02:35:25;;;;;;;;;;;;;;;;;;5053241;28;1270;-50
2021/07/08 02:37:50;;;;;;;;;;;;;;;;;;5052666;28;1164;-51
2021/07/08 02:40:17;;;;;;;;;;;;;;;;;;5050096;28;1965;-51
2021/07/08 02:42:44;;;;;;;;;;;;;;;;;;5048364;28;1487;-51
2021/07/08 02:45:10;;;;;;;;;;;;;;;;;;5049450;28;1655;-51
2021/07/08 02:47:35;;;;;;;;;;;;;;;;;;5049418;28;1312;-51
2021/07/08 02:50:00;;;;;;;;;;;;;;;;;;5050940;28;1365;-51
2021/07/08 02:52:25;;;;;;;;;;;;;;;;;;5050838;28;1527;-50
2021/07/08 02:54:50;;;;;;;;;;;;;;;;;;5046451;28;1585;-51
2021/07/08 02:57:16;;;;;;;;;;;;;;;;;;5052652;28;1563;-51
2021/07/08 02:59:41;;;;;;;;;;;;;;;;;;5048402;28;1987;-50
2021/07/08 03:02:06;;;;;;;;;;;;;;;;;;5052189;28;1247;-51
2021/07/08 03:04:31;;;;;;;;;;;;;;;;;;5051454;28;1651;-51
2021/07/08 03:06:56;;;;;;;;;;;;;;;;;;5047675;28;1528;-50
2021/07/08 03:09:22;;;;;;;;;;;;;;;;;;5053277;28;1148;-51
2021/07/08 03:11:47;;;;;;;;;;;;;;;;;;5051698;28;1140;-50
2021/07/08 03:14:12;;;;;;;;;;;;;;;;;;5049442;28;1627;-51
2021/07/08 03:16:37;;;;;;;;;;;;;;;;;;5050231;28;1362;-51
2021/07/08 03:19:02;;;;;;;;;;;;;;;;;;5052581;28;1905;-51
2021/07/08 03:21:27;;;;;;;;;;;;;;;;;;5050645;28;1544;-49
2021/07/08 03:23:53;;;;;;;;;;;;;;;;;;5051882;28;1645;-51
2021/07/08 03:26:18;;;;;;;;;;;;;;;;;;5050612;28;1272;-51
2021/07/08 03:28:43;;;;;;;;;;;;;;;;;;5049110;28;1325;-51
2021/07/08 03:31:08;;;;;;;;;;;;;;;;;;5049771;28;1600;-51
2021/07/08 03:33:33;;;;;;;;;;;;;;;;;;5050307;28;1352;-50
2021/07/08 03:35:59;;;;;;;;;;;;;;;;;;5052626;28;1279;-50
2021/07/08 03:38:24;;;;;;;;;;;;;;;;;;5048800;28;1644;-51
2021/07/08 03:40:49;;;;;;;;;;;;;;;;;;5050748;28;1961;-50
2021/07/08 03:43:14;;;;;;;;;;;;;;;;;;5048926;28;1314;-51
2021/07/08 03:45:40;;;;;;;;;;;;;;;;;;5050439;28;1961;-51
2021/07/08 03:48:05;;;;;;;;;;;;;;;;;;5048483;28;1527;-50
2021/07/08 03:50:30;;;;;;;;;;;;;;;;;;5045232;28;1476;-50
2021/07/08 03:52:58;;;;;;;;;;;;;;;;;;5050095;28;1600;-49
2021/07/08 03:55:23;;;;;;;;;;;;;;;;;;5048577;28;1286;-51
2021/07/08 03:57:57;;;;;;;;;;;;;;;;;;5052396;28;1140;-50
2021/07/08 04:00:24;;;;;;;;;;;;;;;;;;5044344;28;1906;-51
2021/07/08 04:02:49;;;;;;;;;;;;;;;;;;5051705;28;1140;-50
2021/07/08 04:05:14;;;;;;;;;;;;;;;;;;5045856;28;1662;-50
2021/07/08 04:07:40;;;;;;;;;;;;;;;;;;5044791;28;1762;-51
2021/07/08 04:10:05;;;;;;;;;;;;;;;;;;5046334;28;1381;-51
2021/07/08 04:12:30;;;;;;;;;;;;;;;;;;5047890;28;1285;-51
2021/07/08 04:14:55;;;;;;;;;;;;;;;;;;5049017;28;1563;-50
2021/07/08 04:17:20;;;;;;;;;;;;;;;;;;5051015;28;1369;-50
2021/07/08 04:19:46;;;;;;;;;;;;;;;;;;5051836;28;1962;-51
2021/07/08 04:22:11;;;;;;;;;;;;;;;;;;5050861;28;1305;-51
2021/07/08 04:24:36;;;;;;;;;;;;;;;;;;5048758;28;1749;-50
2021/07/08 04:27:01;;;;;;;;;;;;;;;;;;5050438;28;1280;-51
2021/07/08 04:29:26;;;;;;;;;;;;;;;;;;5047773;28;1683;-51
2021/07/08 04:31:52;;;;;;;;;;;;;;;;;;5051206;28;1208;-50
2021/07/08 04:34:17;;;;;;;;;;;;;;;;;;5050972;28;1247;-51
2021/07/08 04:36:42;;;;;;;;;;;;;;;;;;5048163;28;1320;-50
2021/07/08 04:39:08;;;;;;;;;;;;;;;;;;5047622;28;1938;-50
2021/07/08 04:41:33;;;;;;;;;;;;;;;;;;5048429;28;1632;-50
2021/07/08 04:43:59;;;;;;;;;;;;;;;;;;5051116;28;1180;-51
2021/07/08 04:46:25;;;;;;;;;;;;;;;;;;5045771;28;1587;-52
2021/07/08 04:48:51;;;;;;;;;;;;;;;;;;5033617;28;1195;-50
2021/07/08 04:51:16;;;;;;;;;;;;;;;;;;5048758;28;1551;-51
2021/07/08 04:53:42;;;;;;;;;;;;;;;;;;5047975;28;1556;-50
2021/07/08 04:56:07;;;;;;;;;;;;;;;;;;5053808;22;1726;-50
2021/07/08 04:58:32;;;;;;;;;;;;;;;;;;5025968;28;1906;-51
2021/07/08 05:00:57;;;;;;;;;;;;;;;;;;5020389;28;1593;-51
2021/07/08 05:03:23;;;;;;;;;;;;;;;;;;5027729;28;1066;-51
2021/07/08 05:05:49;;;;;;;;;;;;;;;;;;5026836;28;1613;-52
2021/07/08 05:08:14;;;;;;;;;;;;;;;;;;5040714;28;1201;-51
2021/07/08 05:10:39;;;;;;;;;;;;;;;;;;5040326;28;1511;-51
2021/07/08 05:13:05;;;;;;;;;;;;;;;;;;5039906;28;1164;-51
2021/07/08 05:15:30;;;;;;;;;;;;;;;;;;5038793;28;1649;-52
2021/07/08 05:17:55;;;;;;;;;;;;;;;;;;5041066;28;1297;-52
2021/07/08 05:20:20;;;;;;;;;;;;;;;;;;5040415;28;1969;-51
2021/07/08 05:22:46;;;;;;;;;;;;;;;;;;5041133;28;1268;-52
2021/07/08 05:25:15;;;;;;;;;;;;;;;;;;5037156;28;1660;-51
2021/07/08 05:27:40;;;;;;;;;;;;;;;;;;5039522;28;1370;-51
2021/07/08 05:30:06;;;;;;;;;;;;;;;;;;5036655;28;1629;-51
2021/07/08 05:32:31;;;;;;;;;;;;;;;;;;5040209;28;1184;-51
2021/07/08 05:34:56;;;;;;;;;;;;;;;;;;5037606;28;1322;-52
2021/07/08 05:37:21;;;;;;;;;;;;;;;;;;5038147;28;1398;-52
2021/07/08 05:39:46;;;;;;;;;;;;;;;;;;5021726;28;1910;-51
2021/07/08 05:42:12;;;;;;;;;;;;;;;;;;5034678;28;1365;-52
2021/07/08 05:44:37;;;;;;;;;;;;;;;;;;5036610;28;1583;-51
2021/07/08 05:47:02;;;;;;;;;;;;;;;;;;5039222;28;1270;-51
2021/07/08 05:49:27;;;;;;;;;;;;;;;;;;5021674;28;1367;-52
2021/07/08 05:51:52;;;;;;;;;;;;;;;;;;5039509;28;1096;-51
2021/07/08 05:54:18;;;;;;;;;;;;;;;;;;5037850;28;1623;-52
2021/07/08 05:56:43;;;;;;;;;;;;;;;;;;5037965;28;1369;-51
2021/07/08 05:59:08;;;;;;;;;;;;;;;;;;5039888;28;1910;-52
2021/07/08 06:01:33;;;;;;;;;;;;;;;;;;5036819;28;1744;-51
2021/07/08 06:03:58;;;;;;;;;;;;;;;;;;5036953;28;1369;-51
2021/07/08 06:06:24;;;;;;;;;;;;;;;;;;5036177;28;1583;-51
2021/07/08 06:08:49;;;;;;;;;;;;;;;;;;5038064;28;1031;-51
2021/07/08 06:11:14;;;;;;;;;;;;;;;;;;5039790;28;1378;-52
2021/07/08 06:13:39;;;;;;;;;;;;;;;;;;5037937;28;1581;-51
2021/07/08 06:16:05;;;;;;;;;;;;;;;;;;5036030;28;1640;-51
2021/07/08 06:18:30;;;;;;;;;;;;;;;;;;5020565;28;1323;-52
2021/07/08 06:20:55;;;;;;;;;;;;;;;;;;5038223;28;1985;-52
2021/07/08 06:23:21;;;;;;;;;;;;;;;;;;5038622;28;1649;-52
2021/07/08 06:25:47;;;;;;;;;;;;;;;;;;5037951;28;1421;-51
2021/07/08 06:28:12;;;;;;;;;;;;;;;;;;5037526;28;1321;-52
2021/07/08 06:30:37;;;;;;;;;;;;;;;;;;5038318;28;1582;-52
2021/07/08 06:33:02;;;;;;;;;;;;;;;;;;5038657;28;1631;-51
2021/07/08 06:35:27;;;;;;;;;;;;;;;;;;5037585;28;1444;-51
2021/07/08 06:37:53;;;;;;;;;;;;;;;;;;5039298;28;1336;-51
2021/07/08 06:40:18;;;;;;;;;;;;;;;;;;5035906;28;1968;-51
2021/07/08 06:42:43;;;;;;;;;;;;;;;;;;5039963;28;1156;-52
2021/07/08 06:45:12;;;;;;;;;;;;;;;;;;5029937;28;1563;-51
2021/07/08 06:47:39;;;;;;;;;;;;;;;;;;5038283;28;1268;-51
2021/07/08 06:50:07;;;;;;;;;;;;;;;;;;5039879;28;1259;-51
2021/07/08 06:52:32;;;;;;;;;;;;;;;;;;5039206;28;1851;-51
2021/07/08 06:54:58;;;;;;;;;;;;;;;;;;5034673;28;1593;-51
2021/07/08 06:57:23;;;;;;;;;;;;;;;;;;5039515;28;1304;-51
2021/07/08 06:59:48;;;;;;;;;;;;;;;;;;5036481;28;1902;-51
2021/07/08 07:02:13;;;;;;;;;;;;;;;;;;5038678;28;1279;-52
2021/07/08 07:04:38;;;;;;;;;;;;;;;;;;5037110;28;1573;-52
2021/07/08 07:07:04;;;;;;;;;;;;;;;;;;5030497;28;1547;-48
2021/07/08 07:09:29;;;;;;;;;;;;;;;;;;5039365;28;1173;-51
2021/07/08 07:11:54;;;;;;;;;;;;;;;;;;5034987;28;1652;-51
2021/07/08 07:14:19;;;;;;;;;;;;;;;;;;5035383;28;1648;-52
2021/07/08 07:16:45;;;;;;;;;;;;;;;;;;5042654;28;1283;-51
2021/07/08 07:19:10;;;;;;;;;;;;;;;;;;5041871;28;1977;-52
2021/07/08 07:21:35;;;;;;;;;;;;;;;;;;5043091;28;1232;-51
2021/07/08 07:24:01;;;;;;;;;;;;;;;;;;5039097;28;1559;-51
2021/07/08 07:26:26;;;;;;;;;;;;;;;;;;5042875;28;1308;-51
2021/07/08 07:28:52;;;;;;;;;;;;;;;;;;5043963;28;1381;-51
2021/07/08 07:31:17;;;;;;;;;;;;;;;;;;5038468;28;1672;-51
2021/07/08 07:33:42;;;;;;;;;;;;;;;;;;5039188;28;1271;-50
2021/07/08 07:36:09;;;;;;;;;;;;;;;;;;5042147;28;1355;-51
2021/07/08 07:38:35;;;;;;;;;;;;;;;;;;5040810;28;1988;-52
2021/07/08 07:41:00;;;;;;;;;;;;;;;;;;5038981;28;1823;-49
2021/07/08 07:43:25;;;;;;;;;;;;;;;;;;5040054;28;1472;-52
2021/07/08 07:45:50;;;;;;;;;;;;;;;;;;5038014;28;1641;-51
2021/07/08 07:48:16;;;;;;;;;;;;;;;;;;5040796;28;1318;-51
2021/07/08 07:50:41;;;;;;;;;;;;;;;;;;5039986;28;1448;-51
2021/07/08 07:53:06;;;;;;;;;;;;;;;;;;5040201;28;1602;-51
2021/07/08 07:55:31;;;;;;;;;;;;;;;;;;5039330;28;1263;-51
2021/07/08 07:57:57;;;;;;;;;;;;;;;;;;5039487;28;1473;-50
2021/07/08 08:00:23;;;;;;;;;;;;;;;;;;5036291;28;1914;-51
2021/07/08 08:02:48;;;;;;;;;;;;;;;;;;5039082;28;1562;-51
2021/07/08 08:10:23;;;;;;;;;;;;;;;;;;5040524;28;994;-51
2021/07/08 08:12:48;;;;;;;;;;;;;;;;;;5039057;28;1334;-51
2021/07/08 08:15:15;;;;;;;;;;;;;;;;;;5038715;28;1601;-51
2021/07/08 08:17:40;;;;;;;;;;;;;;;;;;5036377;28;1655;-51
2021/07/08 08:20:05;;;;;;;;;;;;;;;;;;5041285;28;1906;-52
2021/07/08 08:22:31;;;;;;;;;;;;;;;;;;5035438;28;3400;-48
2021/07/08 08:24:56;;;;;;;;;;;;;;;;;;5034642;28;1844;-47
2021/07/08 08:27:21;;;;;;;;;;;;;;;;;;5039298;28;2205;-48
2021/07/08 08:29:47;;;;;;;;;;;;;;;;;;5034736;28;2465;-48
2021/07/08 08:32:12;;;;;;;;;;;;;;;;;;5037986;28;1965;-50
2021/07/08 08:34:37;;;;;;;;;;;;;;;;;;5018149;28;2110;-50
2021/07/08 08:37:03;;;;;;;;;;;;;;;;;;5039282;28;2338;-48
2021/07/08 08:39:28;;;;;;;;;;;;;;;;;;5034128;28;2150;-48
2021/07/08 08:41:53;;;;;;;;;;;;;;;;;;5036736;28;1908;-50
2021/07/08 08:44:18;;;;;;;;;;;;;;;;;;5032384;28;1916;-48
2021/07/08 08:46:43;;;;;;;;;;;;;;;;;;5036957;28;2021;-49
2021/07/08 08:49:09;;;;;;;;;;;;;;;;;;5037322;28;2018;-49
2021/07/08 08:51:34;;;;;;;;;;;;;;;;;;5036168;28;1931;-48
2021/07/08 08:54:00;;;;;;;;;;;;;;;;;;5032716;28;2206;-47
2021/07/08 08:56:26;;;;;;;;;;;;;;;;;;5038132;28;1978;-48
2021/07/08 08:58:51;;;;;;;;;;;;;;;;;;5036031;28;1964;-49
2021/07/08 09:01:16;;;;;;;;;;;;;;;;;;5035190;28;3664;-48
2021/07/08 09:03:42;;;;;;;;;;;;;;;;;;5033528;28;2252;-52
2021/07/08 09:06:08;;;;;;;;;;;;;;;;;;5034734;28;2108;-53
2021/07/08 09:08:34;;;;;;;;;;;;;;;;;;5037974;28;2027;-50
2021/07/08 09:11:02;;;;;;;;;;;;;;;;;;5037437;28;2262;-51
2021/07/08 09:13:28;;;;;;;;;;;;;;;;;;5036798;28;1958;-53
2021/07/08 09:15:53;;;;;;;;;;;;;;;;;;5034459;28;1919;-52
2021/07/08 09:18:18;;;;;;;;;;;;;;;;;;5040772;28;2396;-52
2021/07/08 09:20:43;;;;;;;;;;;;;;;;;;5034884;28;2340;-52
2021/07/08 09:23:10;;;;;;;;;;;;;;;;;;5036920;28;2163;-53
2021/07/08 09:25:36;;;;;;;;;;;;;;;;;;5035578;28;1871;-52
2021/07/08 09:28:14;;;;;;;;;;;;;;;;;;5037522;28;1978;-53
2021/07/08 09:30:39;;;;;;;;;;;;;;;;;;5034131;28;2163;-50
2021/07/08 09:33:25;;;;;;;;;;;;;;;;;;5036806;28;1953;-53
2021/07/08 09:35:50;;;;;;;;;;;;;;;;;;5021103;28;1920;-51
2021/07/08 09:38:22;;;;;;;;;;;;;;;;;;5037925;28;3789;-51
2021/07/08 09:40:47;;;;;;;;;;;;;;;;;;5033157;28;1943;-53
2021/07/08 09:43:28;;;;;;;;;;;;;;;;;;5019005;28;1855;-53
2021/07/08 09:45:53;;;;;;;;;;;;;;;;;;5033143;28;1920;-52
2021/07/08 09:48:19;;;;;;;;;;;;;;;;;;5020333;28;2143;-53
2021/07/08 09:50:44;;;;;;;;;;;;;;;;;;5039664;28;1900;-53
2021/07/08 09:53:18;;;;;;;;;;;;;;;;;;5035346;28;1995;-54
2021/07/08 09:58:53;;;;;;;;;;;;;;;;;;5037791;28;1978;-53
2021/07/08 10:01:18;;;;;;;;;;;;;;;;;;5019821;28;2612;-53
2021/07/08 10:03:44;;;;;;;;;;;;;;;;;;5034947;28;1929;-54
2021/07/08 10:06:09;;;;;;;;;;;;;;;;;;5036074;28;1971;-52
2021/07/08 10:08:35;;;;;;;;;;;;;;;;;;5036786;28;1978;-53
2021/07/08 10:11:00;;;;;;;;;;;;;;;;;;5039873;28;2161;-51
2021/07/08 10:13:25;;;;;;;;;;;;;;;;;;5033905;28;1982;-53
2021/07/08 10:15:51;;;;;;;;;;;;;;;;;;5013279;28;4119;-51
2021/07/08 10:18:16;;;;;;;;;;;;;;;;;;5018255;28;2174;-53
2021/07/08 10:20:41;;;;;;;;;;;;;;;;;;5037944;28;2230;-52
2021/07/08 10:23:07;;;;;;;;;;;;;;;;;;5035046;28;1983;-54
2021/07/08 10:25:32;;;;;;;;;;;;;;;;;;5015342;28;1957;-54
2021/07/08 10:27:57;;;;;;;;;;;;;;;;;;5018915;28;2004;-54
2021/07/08 10:30:22;;;;;;;;;;;;;;;;;;5035172;28;2181;-53
2021/07/08 10:32:57;;;;;;;;;;;;;;;;;;5021273;28;2018;-54
2021/07/08 10:35:48;;;;;;;;;;;;;;;;;;5033799;28;2215;-51
2021/07/08 10:38:28;;;;;;;;;;;;;;;;;;5029064;28;2007;-52
2021/07/08 10:41:19;;;;;;;;;;;;;;;;;;5038025;28;1985;-53
2021/07/08 10:43:44;;;;;;;;;;;;;;;;;;5006022;28;2103;-53
2021/07/08 10:46:19;;;;;;;;;;;;;;;;;;5035020;28;2041;-52
2021/07/08 10:48:44;;;;;;;;;;;;;;;;;;5037906;28;2217;-53
2021/07/08 10:51:16;;;;;;;;;;;;;;;;;;5042081;28;1959;-54
2021/07/08 10:53:42;;;;;;;;;;;;;;;;;;5038309;28;3727;-54
2021/07/08 10:56:08;;;;;;;;;;;;;;;;;;5033759;28;1963;-55
2021/07/08 10:58:39;;;;;;;;;;;;;;;;;;5037705;28;2023;-52
2021/07/08 11:01:28;;;;;;;;;;;;;;;;;;5038632;28;2178;-56
2021/07/08 11:04:00;;;;;;;;;;;;;;;;;;5033935;28;1958;-54
2021/07/08 11:06:25;;;;;;;;;;;;;;;;;;5031674;28;1954;-54
2021/07/08 11:08:58;;;;;;;;;;;;;;;;;;5039078;28;2000;-52
2021/07/08 11:11:23;;;;;;;;;;;;;;;;;;5066794;23;1876;-93
2021/07/08 11:13:49;;;;;;;;;;;;;;;;;;5048742;28;1057;-93
2021/07/08 11:16:33;;;;;;;;;;;;;;;;;;5044174;28;1623;-93
2021/07/08 11:19:02;;;;;;;;;;;;;;;;;;5047303;28;1922;-91
2021/07/08 11:21:46;;;;;;;;;;;;;;;;;;5025343;28;1499;-93
2021/07/08 11:24:20;;;;;;;;;;;;;;;;;;5029766;28;1150;-93
2021/07/08 11:26:54;;;;;;;;;;;;;;;;;;5010996;28;1442;-95
2021/07/08 11:29:33;;;;;;;;;;;;;;;;;;5025388;28;1664;-93
2021/07/08 11:31:58;;;;;;;;;;;;;;;;;;5013045;28;1328;-90
2021/07/08 11:34:24;;;;;;;;;;;;;;;;;;5033128;28;1161;-91
2021/07/08 11:36:49;;;;;;;;;;;;;;;;;;5033723;28;1141;-93
2021/07/08 11:39:14;;;;;;;;;;;;;;;;;;5018725;28;1950;-91
2021/07/08 11:41:41;;;;;;;;;;;;;;;;;;5031765;28;1098;-91
2021/07/08 11:44:06;;;;;;;;;;;;;;;;;;5012080;28;1444;-93
2021/07/08 11:46:31;;;;;;;;;;;;;;;;;;5014365;28;1506;-92
2021/07/08 11:48:56;;;;;;;;;;;;;;;;;;5013756;28;1154;-91
2021/07/08 11:51:24;;;;;;;;;;;;;;;;;;5014484;28;1463;-92
2021/07/08 11:53:50;;;;;;;;;;;;;;;;;;5013904;28;966;-93
2021/07/08 11:56:16;;;;;;;;;;;;;;;;;;5028427;28;1670;-94
2021/07/08 11:58:41;;;;;;;;;;;;;;;;;;4998278;28;1443;-93
2021/07/08 12:01:07;;;;;;;;;;;;;;;;;;5027804;28;1973;-93
2021/07/08 12:03:32;;;;;;;;;;;;;;;;;;5011553;28;1453;-93
2021/07/08 12:06:07;;;;;;;;;;;;;;;;;;5027327;28;1674;-92
2021/07/08 12:08:33;;;;;;;;;;;;;;;;;;5010739;28;1268;-88
2021/07/08 12:11:13;;;;;;;;;;;;;;;;;;5031974;28;1262;-90
2021/07/08 12:13:57;;;;;;;;;;;;;;;;;;5011006;28;1567;-90
2021/07/08 12:16:32;;;;;;;;;;;;;;;;;;5026706;28;1545;-91
2021/07/08 12:19:00;;;;;;;;;;;;;;;;;;5027654;28;1980;-91
2021/07/08 12:21:32;;;;;;;;;;;;;;;;;;5014410;28;1209;-91
2021/07/08 12:24:04;;;;;;;;;;;;;;;;;;5028481;28;1494;-88
2021/07/08 12:26:39;;;;;;;;;;;;;;;;;;5029936;28;1143;-89
2021/07/08 12:29:14;;;;;;;;;;;;;;;;;;5011892;28;1538;-89
2021/07/08 12:31:40;;;;;;;;;;;;;;;;;;5029522;28;1244;-88
2021/07/08 12:34:05;;;;;;;;;;;;;;;;;;5012159;28;1286;-89
2021/07/08 12:36:30;;;;;;;;;;;;;;;;;;5030578;28;1086;-89
2021/07/08 12:38:55;;;;;;;;;;;;;;;;;;5023396;28;1969;-89
2021/07/08 12:41:20;;;;;;;;;;;;;;;;;;5013037;28;1315;-90
2021/07/08 12:43:46;;;;;;;;;;;;;;;;;;5029378;28;1346;-90
2021/07/08 12:46:11;;;;;;;;;;;;;;;;;;5025178;28;1558;-89
2021/07/08 12:48:36;;;;;;;;;;;;;;;;;;5024588;28;1161;-89
2021/07/08 12:51:02;;;;;;;;;;;;;;;;;;5008841;28;1443;-89
2021/07/08 12:53:27;;;;;;;;;;;;;;;;;;5009863;28;1233;-89
2021/07/08 12:55:53;;;;;;;;;;;;;;;;;;5009157;28;1646;-90
2021/07/08 12:58:21;;;;;;;;;;;;;;;;;;5018860;28;1346;-89
2021/07/08 13:00:47;;;;;;;;;;;;;;;;;;5011647;28;1937;-89
2021/07/08 13:03:32;;;;;;;;;;;;;;;;;;5011767;28;1157;-88
2021/07/08 13:06:06;;;;;;;;;;;;;;;;;;5020733;28;1628;-91
2021/07/08 13:08:31;;;;;;;;;;;;;;;;;;5007481;28;2528;-90
2021/07/08 13:10:56;;;;;;;;;;;;;;;;;;5019195;28;1249;-90
2021/07/08 13:13:24;;;;;;;;;;;;;;;;;;5020655;28;1501;-89
2021/07/08 13:15:49;;;;;;;;;;;;;;;;;;5017601;28;2151;-88
2021/07/08 13:18:15;;;;;;;;;;;;;;;;;;5019694;28;1393;-88
2021/07/08 13:20:41;;;;;;;;;;;;;;;;;;5020617;28;1973;-87
2021/07/08 13:23:25;;;;;;;;;;;;;;;;;;5021422;28;1280;-85
2021/07/08 13:25:56;;;;;;;;;;;;;;;;;;5022397;28;1699;-87
2021/07/08 13:28:28;;;;;;;;;;;;;;;;;;5011929;28;1350;-85
2021/07/08 13:30:57;;;;;;;;;;;;;;;;;;5010361;28;1561;-86
2021/07/08 13:33:26;;;;;;;;;;;;;;;;;;5021704;28;1102;-87
2021/07/08 13:35:57;;;;;;;;;;;;;;;;;;5011740;28;1294;-86
2021/07/08 13:38:25;;;;;;;;;;;;;;;;;;5022068;28;1088;-86
2021/07/08 13:41:07;;;;;;;;;;;;;;;;;;5010328;28;1967;-87
2021/07/08 13:43:44;;;;;;;;;;;;;;;;;;5020292;28;1141;-87
2021/07/08 13:46:09;;;;;;;;;;;;;;;;;;5021997;28;1622;-87
2021/07/08 13:48:35;;;;;;;;;;;;;;;;;;5019727;28;3325;-85
2021/07/08 13:51:00;;;;;;;;;;;;;;;;;;5017206;28;1991;-86
2021/07/08 13:53:25;;;;;;;;;;;;;;;;;;5018711;28;2705;-85
2021/07/08 13:55:51;;;;;;;;;;;;;;;;;;5020162;28;1930;-84
2021/07/08 13:58:16;;;;;;;;;;;;;;;;;;5022203;28;1987;-85
2021/07/08 14:00:41;;;;;;;;;;;;;;;;;;5016765;28;1942;-85
2021/07/08 14:03:06;;;;;;;;;;;;;;;;;;5021566;28;2104;-85
2021/07/08 14:05:31;;;;;;;;;;;;;;;;;;5015532;28;1958;-85
2021/07/08 14:07:57;;;;;;;;;;;;;;;;;;5017712;28;1907;-84
2021/07/08 14:10:22;;;;;;;;;;;;;;;;;;5020534;28;1907;-85
2021/07/08 14:12:48;;;;;;;;;;;;;;;;;;5019293;28;1907;-85
2021/07/08 14:15:13;;;;;;;;;;;;;;;;;;5019937;28;2004;-87
2021/07/08 14:17:38;;;;;;;;;;;;;;;;;;5023426;28;1963;-86
2021/07/08 14:20:03;;;;;;;;;;;;;;;;;;5021177;28;1923;-88
2021/07/08 14:22:29;;;;;;;;;;;;;;;;;;5024131;28;2018;-88
2021/07/08 14:24:54;;;;;;;;;;;;;;;;;;5022653;28;2292;-88
2021/07/08 14:27:19;;;;;;;;;;;;;;;;;;5025418;28;2237;-86
2021/07/08 14:29:44;;;;;;;;;;;;;;;;;;5023849;28;1934;-86
2021/07/08 14:32:09;;;;;;;;;;;;;;;;;;5022856;28;2046;-87
2021/07/08 14:34:34;;;;;;;;;;;;;;;;;;5023602;28;2106;-87
2021/07/08 14:37:01;;;;;;;;;;;;;;;;;;5024067;28;1888;-89
2021/07/08 14:39:26;;;;;;;;;;;;;;;;;;5022881;28;2084;-89
2021/07/08 14:42:00;;;;;;;;;;;;;;;;;;5010916;28;1931;-88
2021/07/08 14:44:31;;;;;;;;;;;;;;;;;;5010491;28;2047;-87
2021/07/08 14:46:57;;;;;;;;;;;;;;;;;;5012621;28;1917;-87
2021/07/08 14:49:25;;;;;;;;;;;;;;;;;;5025504;28;1994;-88
2021/07/08 14:51:51;;;;;;;;;;;;;;;;;;5011368;28;2089;-89
2021/07/08 14:54:16;;;;;;;;;;;;;;;;;;5022130;28;1976;-89
2021/07/08 14:56:41;;;;;;;;;;;;;;;;;;5023057;28;1896;-89
2021/07/08 14:59:06;;;;;;;;;;;;;;;;;;5026626;28;1984;-87
2021/07/08 15:01:32;;;;;;;;;;;;;;;;;;5022675;28;1953;-87
2021/07/08 15:03:57;;;;;;;;;;;;;;;;;;5020432;28;3845;-87
2021/07/08 15:06:23;;;;;;;;;;;;;;;;;;5020495;28;1979;-88
2021/07/08 15:08:48;;;;;;;;;;;;;;;;;;5025004;28;2041;-87
2021/07/08 15:11:14;;;;;;;;;;;;;;;;;;5021252;28;1911;-87
2021/07/08 15:13:39;;;;;;;;;;;;;;;;;;5010053;28;2048;-87
2021/07/08 15:16:09;;;;;;;;;;;;;;;;;;5021935;28;2083;-87
2021/07/08 15:18:34;;;;;;;;;;;;;;;;;;5010984;28;2599;-87
2021/07/08 15:20:59;;;;;;;;;;;;;;;;;;5023145;28;1908;-87
2021/07/08 15:23:25;;;;;;;;;;;;;;;;;;5019945;28;1964;-87
2021/07/08 15:25:51;;;;;;;;;;;;;;;;;;5022997;28;2045;-87
2021/07/08 15:28:17;;;;;;;;;;;;;;;;;;5024642;28;2062;-87
2021/07/08 15:30:42;;;;;;;;;;;;;;;;;;5023094;28;1539;-86
2021/07/08 15:33:07;;;;;;;;;;;;;;;;;;5023169;28;1169;-87
2021/07/08 15:35:32;;;;;;;;;;;;;;;;;;5022189;28;1307;-86
2021/07/08 15:37:57;;;;;;;;;;;;;;;;;;5025187;28;1286;-87
2021/07/08 15:40:23;;;;;;;;;;;;;;;;;;5022965;28;1973;-87
2021/07/08 15:42:48;;;;;;;;;;;;;;;;;;5023349;28;1208;-87
2021/07/08 15:45:13;;;;;;;;;;;;;;;;;;5024735;28;1605;-86
2021/07/08 15:47:38;;;;;;;;;;;;;;;;;;5024303;28;1166;-87
2021/07/08 15:50:04;;;;;;;;;;;;;;;;;;5013278;28;1382;-88
2021/07/08 15:52:29;;;;;;;;;;;;;;;;;;5030237;28;1137;-88
2021/07/08 15:54:54;;;;;;;;;;;;;;;;;;5029217;28;1912;-88
2021/07/08 15:57:20;;;;;;;;;;;;;;;;;;5031491;28;1398;-86
2021/07/08 15:59:45;;;;;;;;;;;;;;;;;;5027615;28;1977;-86
2021/07/08 16:02:10;;;;;;;;;;;;;;;;;;5027379;28;1558;-86
2021/07/08 16:04:36;;;;;;;;;;;;;;;;;;5030940;28;1157;-86
2021/07/08 16:07:01;;;;;;;;;;;;;;;;;;5027795;28;1557;-86
2021/07/08 16:09:26;;;;;;;;;;;;;;;;;;5027587;28;1490;-86
2021/07/08 16:11:52;;;;;;;;;;;;;;;;;;5031392;28;1098;-87
2021/07/08 16:14:17;;;;;;;;;;;;;;;;;;5027863;28;1510;-86
2021/07/08 16:16:42;;;;;;;;;;;;;;;;;;5030846;28;1058;-86
2021/07/08 16:19:07;;;;;;;;;;;;;;;;;;5027704;28;1907;-86
2021/07/08 16:21:32;;;;;;;;;;;;;;;;;;5029613;28;1192;-86
2021/07/08 16:23:58;;;;;;;;;;;;;;;;;;5027290;28;1627;-86
2021/07/08 16:26:23;;;;;;;;;;;;;;;;;;5030128;28;1458;-86
2021/07/08 16:28:48;;;;;;;;;;;;;;;;;;5031859;28;1172;-86
2021/07/08 16:31:13;;;;;;;;;;;;;;;;;;5025926;28;1621;-86
2021/07/08 16:33:38;;;;;;;;;;;;;;;;;;5031833;28;1224;-86
2021/07/08 16:36:04;;;;;;;;;;;;;;;;;;5028724;28;1314;-86
2021/07/08 16:38:29;;;;;;;;;;;;;;;;;;5028525;28;1592;-86
2021/07/08 16:40:58;;;;;;;;;;;;;;;;;;5027934;28;1898;-86
2021/07/08 16:43:24;;;;;;;;;;;;;;;;;;5028982;28;1007;-86
2021/07/08 16:45:49;;;;;;;;;;;;;;;;;;5027980;28;1584;-86
2021/07/08 16:48:14;;;;;;;;;;;;;;;;;;5031572;28;1223;-87
2021/07/08 16:50:40;;;;;;;;;;;;;;;;;;5030934;28;1461;-86
2021/07/08 16:53:05;;;;;;;;;;;;;;;;;;5031770;28;1153;-86
2021/07/08 16:55:30;;;;;;;;;;;;;;;;;;5025805;28;1569;-86
2021/07/08 16:57:55;;;;;;;;;;;;;;;;;;5031373;28;1145;-86
2021/07/08 17:00:23;;;;;;;;;;;;;;;;;;5048789;28;1954;-85
2021/07/08 17:02:48;;;;;;;;;;;;;;;;;;5055684;28;975;-86
2021/07/08 17:05:13;;;;;;;;;;;;;;;;;;5032404;28;1497;-86